Terminal Aerodrome Forecast
Issued by NWS Mt. Holly, NJ

Home | Current Version | Previous Version | Text Only | Print | Product List | Glossary On
Versions: 1 2 3 4 5 6 7 8 9 10 11 12 13 14 15 16 17 18 19 20 21 22 23
000
FTUS41 KPHI 261731
TAFRDG
TAF
KRDG 261731Z 2618/2718 28012G21KT P6SM VCSH BKN040
     FM262100 30012G20KT P6SM FEW045 SCT100
     FM270000 29008KT P6SM FEW050 SCT100
     FM271400 28006KT P6SM VCSH SCT015 BKN070=

USA.gov is the U.S. government's official web portal to all federal, state and local government web resources and services.